La Grande/Union County Airport

About
Name: La Grande/Union County Airport
Identifier:  LGD/KLGD
Serves:  La Grande, Oregon
Owner:  Union County
Public/Private:  Public
Local Time:  25. Aug 20:16 PDT
Description: Coordinates: 45°17′25″N 118°00′26″W / 45.29028°N 118.00722°W / 45.29028; -118.00722
Source: Wikipedia
Location
Runways
Identifier Length (m/ft) Surface
12/30 1,707/5,600 Asphalt
16/34 1,181/3,876 Asphalt
Statistics
Flights per Day:
0 flights
Distance: 261km (162mi)
Flights delayed:
0% (0 flights per day delayed)
Delay Average: 57 minutes
Current Weather
 18 C (Humidity: 55%)
  7kt (12km/h / 8mph) from 330°
  16km (10 mi.)
 
 METAR KLGD 251556Z AUTO 33007KT 10SM CLR 18/09 A3010 RMK AO2 SLP324 T01830089

Current Delays

Departures
N/A
Arrivals
N/A

Destinations

Top Destinations
Airport Flights
per week
Seats
per week
  Hermiston (HES) 4 - 0 0
  Portland (PDX) 3 - 0 0
  Pendleton (PDT) 2 - 0 0
  Klamath Falls (LMT) 1 - 0 0
  Spokane (GEG) 1 - 0 0
  Everett (PAE) 0 - 0 0
  Tillamook (OTK) 0 - 0 0

Airlines & Planes

Top Airlines
Airline Flights
per Day
Seats
per Day
  Ameriflight 1 -
  Empire Airlines 0 -
  National Airlines 0 -
  Federal Express (FedEx) 0 0
Top Plane Types
Model Flights Seats
Beech 1900D 0.7/day - 0
Beech C-99 Airliner 0.6/day - 0
Cessna C208 0.5/day - -0.03333333333333333
Beech E90 King Air 0.0/day - 0